Time;durP1;ratioP1;P1;durP2;ratioP2;P2;SDS_P1;SDS_P2;PMS_P1;PMS_P2;Temp;Humidity;BMP_temperature;BMP_pressure;BME280_temperature;BME280_humidity;BME280_pressure;Samples;Min_cycle;Max_cycle;Signal;HPM_P1;HPM_P2
2023/12/28 00:00:11;;;;;;;4.87;3.57;;;;;;;;;;5084487;28;20175;-85
2023/12/28 00:03:16;;;;;;;7.73;3.63;;;;;;;;;;5084657;28;20179;-85
2023/12/28 00:06:20;;;;;;;5.90;3.93;;;;;;;;;;5096169;28;21165;-85
2023/12/28 00:09:24;;;;;;;7.17;3.57;;;;;;;;;;5084373;28;20545;-86
2023/12/28 00:12:28;;;;;;;5.23;3.77;;;;;;;;;;5096213;28;20178;-85
2023/12/28 00:15:33;;;;;;;6.57;3.87;;;;;;;;;;5102087;28;20550;-84
2023/12/28 00:18:38;;;;;;;5.47;3.73;;;;;;;;;;5091106;28;20600;-87
2023/12/28 00:21:42;;;;;;;5.40;3.50;;;;;;;;;;5087138;28;20549;-85
2023/12/28 00:24:46;;;;;;;6.27;4.17;;;;;;;;;;5098784;28;20553;-84
2023/12/28 00:27:50;;;;;;;7.97;3.60;;;;;;;;;;5087014;28;20604;-84
2023/12/28 00:30:55;;;;;;;4.40;3.40;;;;;;;;;;5086927;28;20549;-83
2023/12/28 00:33:59;;;;;;;6.13;3.70;;;;;;;;;;5074955;28;20541;-84
2023/12/28 00:37:03;;;;;;;5.00;3.30;;;;;;;;;;5098663;28;20628;-84
2023/12/28 00:40:09;;;;;;;4.70;3.20;;;;;;;;;;5088336;28;20557;-85
2023/12/28 00:43:13;;;;;;;7.80;3.80;;;;;;;;;;5088510;28;20554;-85
2023/12/28 00:46:17;;;;;;;5.70;3.47;;;;;;;;;;5088187;28;20609;-85
2023/12/28 00:49:21;;;;;;;7.43;3.80;;;;;;;;;;5087709;28;20553;-84
2023/12/28 00:52:26;;;;;;;5.73;3.40;;;;;;;;;;5076146;28;20550;-84
2023/12/28 00:55:30;;;;;;;5.27;3.37;;;;;;;;;;5079614;28;21120;-85
2023/12/28 00:58:34;;;;;;;5.67;3.60;;;;;;;;;;5103493;28;20613;-85
2023/12/28 01:01:38;;;;;;;4.87;3.17;;;;;;;;;;5080834;28;20545;-84
2023/12/28 01:04:42;;;;;;;3.47;2.80;;;;;;;;;;5103101;28;20553;-84
2023/12/28 01:07:47;;;;;;;4.83;3.30;;;;;;;;;;5091712;28;20617;-85
2023/12/28 01:10:51;;;;;;;6.37;3.53;;;;;;;;;;5092393;28;20915;-85
2023/12/28 01:13:57;;;;;;;6.00;3.17;;;;;;;;;;5092888;28;21089;-84
2023/12/28 01:17:01;;;;;;;4.77;3.40;;;;;;;;;;5091992;28;20613;-84
2023/12/28 01:20:07;;;;;;;7.03;3.23;;;;;;;;;;5080846;28;20553;-84
2023/12/28 01:23:12;;;;;;;6.30;3.50;;;;;;;;;;5092223;28;20546;-85
2023/12/28 01:26:17;;;;;;;5.37;3.00;;;;;;;;;;5090428;28;20605;-84
2023/12/28 01:29:21;;;;;;;5.00;3.43;;;;;;;;;;5103436;28;20549;-85
2023/12/28 01:32:25;;;;;;;3.57;2.60;;;;;;;;;;5103088;28;20553;-85
2023/12/28 01:35:31;;;;;;;4.33;3.13;;;;;;;;;;5090818;28;20553;-85
2023/12/28 01:38:36;;;;;;;4.90;3.37;;;;;;;;;;5094701;28;20970;-84
2023/12/28 01:41:40;;;;;;;4.57;3.20;;;;;;;;;;5095086;28;20552;-85
2023/12/28 01:44:45;;;;;;;6.47;3.40;;;;;;;;;;5094931;28;20946;-85
2023/12/28 01:47:53;;;;;;;4.70;3.40;;;;;;;;;;5094102;28;20644;-85
2023/12/28 01:50:58;;;;;;;5.17;3.50;;;;;;;;;;5105736;28;20541;-84
2023/12/28 01:54:02;;;;;;;6.13;3.07;;;;;;;;;;5093613;28;20907;-84
2023/12/28 01:57:08;;;;;;;4.80;3.10;;;;;;;;;;5081388;28;20604;-85
2023/12/28 02:00:13;;;;;;;7.23;3.33;;;;;;;;;;5069818;28;20549;-85
2023/12/28 02:03:17;;;;;;;3.60;2.40;;;;;;;;;;5093456;28;20553;-85
2023/12/28 02:06:24;;;;;;;3.27;2.20;;;;;;;;;;5081862;28;20609;-86
2023/12/28 02:09:28;;;;;;;4.17;2.70;;;;;;;;;;5081415;28;20890;-85
2023/12/28 02:12:32;;;;;;;3.63;2.37;;;;;;;;;;5092877;28;20553;-85
2023/12/28 02:15:37;;;;;;;4.10;2.60;;;;;;;;;;5104179;28;20549;-85
2023/12/28 02:18:44;;;;;;;3.13;2.37;;;;;;;;;;5104584;28;20621;-85
2023/12/28 02:21:49;;;;;;;2.90;2.27;;;;;;;;;;5104712;28;20549;-85
2023/12/28 02:25:07;;;;;;;2.50;1.93;;;;;;;;;;5104066;28;20541;-85
2023/12/28 02:28:11;;;;;;;3.47;2.30;;;;;;;;;;5104059;28;20617;-84
2023/12/28 02:31:27;;;;;;;3.70;2.00;;;;;;;;;;5104837;28;20545;-84
2023/12/28 02:34:37;;;;;;;3.20;2.40;;;;;;;;;;5091743;28;20553;-85
2023/12/28 02:37:45;;;;;;;3.30;2.37;;;;;;;;;;5090912;28;20632;-85
2023/12/28 02:40:50;;;;;;;3.37;2.30;;;;;;;;;;5102153;28;20545;-85
2023/12/28 02:43:54;;;;;;;3.40;2.43;;;;;;;;;;5090093;28;20549;-84
2023/12/28 02:46:58;;;;;;;4.07;2.60;;;;;;;;;;5088990;28;20699;-85
2023/12/28 02:50:04;;;;;;;2.73;2.20;;;;;;;;;;5101215;28;20557;-85
2023/12/28 02:53:09;;;;;;;3.33;2.10;;;;;;;;;;5089644;28;20179;-85
2023/12/28 02:56:13;;;;;;;3.10;1.97;;;;;;;;;;5100933;28;20549;-85
2023/12/28 02:59:19;;;;;;;3.33;1.90;;;;;;;;;;5100499;28;20174;-85
2023/12/28 03:02:23;;;;;;;3.83;2.30;;;;;;;;;;5077150;28;20182;-84
2023/12/28 03:05:28;;;;;;;3.23;1.97;;;;;;;;;;5077028;28;20175;-85
2023/12/28 03:08:32;;;;;;;3.13;2.10;;;;;;;;;;5100667;28;20691;-85
2023/12/28 03:11:36;;;;;;;4.07;2.20;;;;;;;;;;5100908;28;20175;-85
2023/12/28 03:14:40;;;;;;;3.90;2.13;;;;;;;;;;5100063;28;20187;-85
2023/12/28 03:17:45;;;;;;;2.77;2.20;;;;;;;;;;5088017;28;20210;-85
2023/12/28 03:20:50;;;;;;;3.63;2.00;;;;;;;;;;5088866;28;20182;-85
2023/12/28 03:23:54;;;;;;;2.87;1.97;;;;;;;;;;5088215;28;20183;-85
2023/12/28 03:26:58;;;;;;;2.77;2.00;;;;;;;;;;5087919;28;20695;-86
2023/12/28 03:30:03;;;;;;;3.53;2.30;;;;;;;;;;5087337;28;20521;-83
2023/12/28 03:33:08;;;;;;;3.50;1.70;;;;;;;;;;5088102;28;20179;-85
2023/12/28 03:36:19;;;;;;;2.97;1.80;;;;;;;;;;5087339;28;20179;-85
2023/12/28 03:39:25;;;;;;;2.53;1.70;;;;;;;;;;5087095;28;20179;-86
2023/12/28 03:42:29;;;;;;;2.23;1.80;;;;;;;;;;5099425;28;20178;-85
2023/12/28 03:45:33;;;;;;;3.07;1.70;;;;;;;;;;5087641;28;20171;-84
2023/12/28 03:48:37;;;;;;;3.30;1.60;;;;;;;;;;5087012;28;20560;-85
2023/12/28 03:51:41;;;;;;;2.40;1.60;;;;;;;;;;5086605;28;20636;-84
2023/12/28 03:54:47;;;;;;;2.10;1.60;;;;;;;;;;5064395;28;20205;-85
2023/12/28 03:57:51;;;;;;;2.40;1.50;;;;;;;;;;5086956;28;20559;-85
2023/12/28 04:00:55;;;;;;;2.73;1.83;;;;;;;;;;5076022;28;20175;-85
2023/12/28 04:03:59;;;;;;;2.40;1.87;;;;;;;;;;5088182;28;20639;-85
2023/12/28 04:07:07;;;;;;;2.00;1.40;;;;;;;;;;5099087;28;20230;-86
2023/12/28 04:10:11;;;;;;;1.70;1.60;;;;;;;;;;5098381;28;20179;-85
2023/12/28 04:13:16;;;;;;;2.17;1.60;;;;;;;;;;5087267;28;20524;-84
2023/12/28 04:16:20;;;;;;;2.63;1.67;;;;;;;;;;5087238;28;20175;-86
2023/12/28 04:19:24;;;;;;;1.53;1.40;;;;;;;;;;5087154;28;20175;-85
2023/12/28 04:22:29;;;;;;;2.10;1.70;;;;;;;;;;5074985;28;20175;-85
2023/12/28 04:25:33;;;;;;;2.53;1.20;;;;;;;;;;5098135;28;20639;-85
2023/12/28 04:28:38;;;;;;;2.27;1.53;;;;;;;;;;5098044;28;20230;-85
2023/12/28 04:31:42;;;;;;;2.17;1.27;;;;;;;;;;5086328;28;20191;-85
2023/12/28 04:34:46;;;;;;;2.63;1.63;;;;;;;;;;5086620;28;20533;-85
2023/12/28 04:37:51;;;;;;;2.50;1.60;;;;;;;;;;5074568;28;20214;-85
2023/12/28 04:40:55;;;;;;;1.93;1.47;;;;;;;;;;5074330;28;20520;-85
2023/12/28 04:43:59;;;;;;;3.13;1.30;;;;;;;;;;5086349;28;20540;-86
2023/12/28 04:47:04;;;;;;;2.00;1.50;;;;;;;;;;5085706;28;20568;-85
2023/12/28 04:50:08;;;;;;;2.43;1.60;;;;;;;;;;5097482;28;20182;-85
2023/12/28 04:53:13;;;;;;;3.77;1.60;;;;;;;;;;5074141;28;20189;-85
2023/12/28 04:56:20;;;;;;;2.93;1.30;;;;;;;;;;5074730;28;20179;-85
2023/12/28 04:59:24;;;;;;;1.50;1.33;;;;;;;;;;5085777;28;20532;-86
2023/12/28 05:02:28;;;;;;;3.43;1.57;;;;;;;;;;5098080;28;20171;-85
2023/12/28 05:05:33;;;;;;;1.37;1.17;;;;;;;;;;5085849;28;20187;-86
2023/12/28 05:08:37;;;;;;;3.10;1.30;;;;;;;;;;5086063;28;20222;-85
2023/12/28 05:11:41;;;;;;;1.57;1.33;;;;;;;;;;5095995;28;20171;-85
2023/12/28 05:14:45;;;;;;;1.87;1.20;;;;;;;;;;5073360;28;20175;-85
2023/12/28 05:17:50;;;;;;;1.87;1.30;;;;;;;;;;5097290;28;20207;-85
2023/12/28 05:20:54;;;;;;;2.80;1.33;;;;;;;;;;5073239;28;20171;-85
2023/12/28 05:23:58;;;;;;;1.47;1.23;;;;;;;;;;5096590;28;20183;-84
2023/12/28 05:27:03;;;;;;;2.13;1.30;;;;;;;;;;5097755;28;20222;-85
2023/12/28 05:30:07;;;;;;;2.00;1.20;;;;;;;;;;5073300;28;20179;-85
2023/12/28 05:33:12;;;;;;;2.10;1.43;;;;;;;;;;5097795;28;20175;-84
2023/12/28 05:36:16;;;;;;;2.13;1.50;;;;;;;;;;5084742;28;20632;-85
2023/12/28 05:39:20;;;;;;;2.33;1.57;;;;;;;;;;5083907;28;20175;-85
2023/12/28 05:42:24;;;;;;;1.50;1.30;;;;;;;;;;5084365;28;20171;-85
2023/12/28 05:45:28;;;;;;;4.20;1.70;;;;;;;;;;5096405;28;20175;-85
2023/12/28 05:48:33;;;;;;;2.73;1.70;;;;;;;;;;5096968;28;20226;-86
2023/12/28 05:51:39;;;;;;;2.97;1.23;;;;;;;;;;5084969;28;20182;-86
2023/12/28 05:54:44;;;;;;;4.13;1.60;;;;;;;;;;5085115;28;20175;-86
2023/12/28 05:57:48;;;;;;;2.13;1.30;;;;;;;;;;5097759;28;20210;-85
2023/12/28 06:00:54;;;;;;;3.57;1.37;;;;;;;;;;5083967;28;20190;-85
2023/12/28 06:03:58;;;;;;;1.77;1.20;;;;;;;;;;5097235;28;20631;-85
2023/12/28 06:07:03;;;;;;;2.30;1.30;;;;;;;;;;5097086;28;20211;-86
2023/12/28 06:10:08;;;;;;;1.60;1.37;;;;;;;;;;5073409;28;20647;-85
2023/12/28 06:13:13;;;;;;;2.43;1.37;;;;;;;;;;5096637;28;20531;-85
2023/12/28 06:16:17;;;;;;;1.87;1.27;;;;;;;;;;5097209;28;20179;-85
2023/12/28 06:19:22;;;;;;;2.50;1.57;;;;;;;;;;5096803;28;20171;-85
2023/12/28 06:22:27;;;;;;;2.47;1.43;;;;;;;;;;5097587;28;20171;-85
2023/12/28 06:25:31;;;;;;;2.57;1.27;;;;;;;;;;5076946;28;20635;-85
2023/12/28 06:28:36;;;;;;;1.53;1.20;;;;;;;;;;5100609;28;20222;-85
2023/12/28 06:31:40;;;;;;;2.13;1.40;;;;;;;;;;5088519;28;20178;-85
2023/12/28 06:34:44;;;;;;;3.37;1.40;;;;;;;;;;5087811;28;20623;-85
2023/12/28 06:37:49;;;;;;;2.07;1.47;;;;;;;;;;5099556;28;20218;-84
2023/12/28 06:40:53;;;;;;;1.93;1.27;;;;;;;;;;5099693;28;20178;-85
2023/12/28 06:43:57;;;;;;;2.47;1.50;;;;;;;;;;5088160;28;20635;-85
2023/12/28 06:47:01;;;;;;;2.47;1.20;;;;;;;;;;5087892;28;20218;-84
2023/12/28 06:50:06;;;;;;;1.60;1.23;;;;;;;;;;5075974;28;20521;-84
2023/12/28 06:53:10;;;;;;;1.70;1.30;;;;;;;;;;5099670;28;20171;-86
2023/12/28 06:56:15;;;;;;;1.60;1.30;;;;;;;;;;5100253;28;20179;-85
2023/12/28 06:59:19;;;;;;;2.57;1.50;;;;;;;;;;5087538;28;20171;-84
2023/12/28 07:02:23;;;;;;;14.63;7.03;;;;;;;;;;5099316;28;20182;-84
2023/12/28 07:05:27;;;;;;;10.87;4.97;;;;;;;;;;5087551;28;20179;-84
2023/12/28 07:08:31;;;;;;;6.03;3.80;;;;;;;;;;5100021;28;20214;-84
2023/12/28 07:11:35;;;;;;;7.10;5.33;;;;;;;;;;5100098;28;20520;-83
2023/12/28 07:14:39;;;;;;;3.73;2.03;;;;;;;;;;5100057;28;20175;-85
2023/12/28 07:17:43;;;;;;;3.83;2.60;;;;;;;;;;5075226;28;20202;-86
2023/12/28 07:20:48;;;;;;;1.60;1.47;;;;;;;;;;5087864;28;20174;-85
2023/12/28 07:23:54;;;;;;;3.20;2.10;;;;;;;;;;5099446;28;20230;-84
2023/12/28 07:26:58;;;;;;;2.60;2.40;;;;;;;;;;5086747;28;20564;-85
2023/12/28 07:30:03;;;;;;;11.47;9.43;;;;;;;;;;5099152;28;20171;-86
2023/12/28 07:33:07;;;;;;;4.00;3.20;;;;;;;;;;5098782;28;20179;-85
2023/12/28 07:36:11;;;;;;;2.50;1.50;;;;;;;;;;5098675;28;20175;-85
2023/12/28 07:39:15;;;;;;;5.23;1.97;;;;;;;;;;5075360;28;20623;-86
2023/12/28 07:42:19;;;;;;;2.00;1.67;;;;;;;;;;5099254;28;20171;-85
2023/12/28 07:45:24;;;;;;;1.97;1.50;;;;;;;;;;5074134;28;20178;-85
2023/12/28 07:48:30;;;;;;;1.97;1.70;;;;;;;;;;5085476;28;20219;-85
2023/12/28 07:51:34;;;;;;;2.87;1.93;;;;;;;;;;5098826;28;20175;-85
2023/12/28 07:54:38;;;;;;;2.93;1.33;;;;;;;;;;5086689;28;20627;-85
2023/12/28 07:57:43;;;;;;;1.50;1.10;;;;;;;;;;5086501;28;20214;-84
2023/12/28 08:00:47;;;;;;;4.80;4.33;;;;;;;;;;5098494;28;20187;-84
2023/12/28 08:03:51;;;;;;;10.73;8.73;;;;;;;;;;5074890;28;20183;-84
2023/12/28 08:06:55;;;;;;;3.93;3.50;;;;;;;;;;5098862;28;20215;-85
2023/12/28 08:10:00;;;;;;;2.30;1.80;;;;;;;;;;5098377;28;20178;-85
2023/12/28 08:13:05;;;;;;;3.67;3.23;;;;;;;;;;5086896;28;20171;-85
2023/12/28 08:16:09;;;;;;;29.20;15.37;;;;;;;;;;5086500;28;20175;-86
2023/12/28 08:19:13;;;;;;;11.00;4.87;;;;;;;;;;5086549;28;20183;-87
2023/12/28 08:22:18;;;;;;;2.40;1.83;;;;;;;;;;5098381;28;20179;-86
2023/12/28 08:25:22;;;;;;;3.00;1.30;;;;;;;;;;5098810;28;20183;-85
2023/12/28 08:28:27;;;;;;;1.73;1.30;;;;;;;;;;5097652;28;20230;-86
2023/12/28 08:31:31;;;;;;;1.50;1.13;;;;;;;;;;5086150;28;20174;-85
2023/12/28 08:34:35;;;;;;;1.67;1.20;;;;;;;;;;5087181;28;20170;-85
2023/12/28 08:37:40;;;;;;;2.43;1.30;;;;;;;;;;5097790;28;20210;-85
2023/12/28 08:40:45;;;;;;;1.30;1.20;;;;;;;;;;5086114;28;20175;-85
2023/12/28 08:43:51;;;;;;;2.23;1.10;;;;;;;;;;5097247;28;20540;-85
2023/12/28 08:46:56;;;;;;;1.10;1.00;;;;;;;;;;5085314;28;20210;-86
2023/12/28 08:50:00;;;;;;;1.57;1.00;;;;;;;;;;5085616;28;20210;-85
2023/12/28 08:53:04;;;;;;;2.30;1.20;;;;;;;;;;5074214;28;20326;-86
2023/12/28 08:56:15;;;;;;;3.90;1.90;;;;;;;;;;5098581;28;20170;-86
2023/12/28 08:59:19;;;;;;;3.53;2.27;;;;;;;;;;5096691;28;20175;-85
2023/12/28 09:02:23;;;;;;;4.47;2.50;;;;;;;;;;5085503;28;20175;-85
2023/12/28 09:05:27;;;;;;;5.07;3.93;;;;;;;;;;5074613;28;20179;-86
2023/12/28 09:08:31;;;;;;;4.67;3.43;;;;;;;;;;5085653;28;20218;-85
2023/12/28 09:11:36;;;;;;;4.33;2.70;;;;;;;;;;5097907;28;20631;-84
2023/12/28 09:14:40;;;;;;;5.60;2.40;;;;;;;;;;5097838;28;20174;-85
2023/12/28 09:17:44;;;;;;;2.60;1.83;;;;;;;;;;5097497;28;20210;-85
2023/12/28 09:20:50;;;;;;;3.50;1.40;;;;;;;;;;5085455;28;20171;-85
2023/12/28 09:23:54;;;;;;;3.83;1.83;;;;;;;;;;5085569;28;20182;-85
2023/12/28 09:26:58;;;;;;;6.57;3.53;;;;;;;;;;5085912;28;20210;-85
2023/12/28 09:30:03;;;;;;;6.13;3.30;;;;;;;;;;5085188;28;20198;-83
2023/12/28 09:33:07;;;;;;;6.63;2.90;;;;;;;;;;5085674;28;20175;-85
2023/12/28 09:36:13;;;;;;;5.00;3.50;;;;;;;;;;5085939;28;20175;-85
2023/12/28 09:39:18;;;;;;;10.77;7.63;;;;;;;;;;5085593;28;20175;-84
2023/12/28 09:42:30;;;;;;;6.10;4.03;;;;;;;;;;5085796;28;20179;-89
2023/12/28 09:45:34;;;;;;;4.90;3.17;;;;;;;;;;5073027;28;20178;-84
2023/12/28 09:48:39;;;;;;;4.87;2.77;;;;;;;;;;5096988;28;20226;-86
2023/12/28 09:51:43;;;;;;;7.30;3.27;;;;;;;;;;5098917;28;20179;-85
2023/12/28 09:54:47;;;;;;;10.27;5.57;;;;;;;;;;5096801;28;20191;-84
2023/12/28 09:57:51;;;;;;;9.47;4.40;;;;;;;;;;5099382;28;20218;-83
2023/12/28 10:00:56;;;;;;;5.10;3.77;;;;;;;;;;5076363;28;20186;-84
2023/12/28 10:04:03;;;;;;;6.40;4.60;;;;;;;;;;5100403;28;20631;-84
2023/12/28 10:07:06;;;;;;;5.60;4.07;;;;;;;;;;5100713;28;20210;-83
2023/12/28 10:10:11;;;;;;;7.90;4.53;;;;;;;;;;5087351;28;20549;-83
2023/12/28 10:13:16;;;;;;;6.47;4.07;;;;;;;;;;5087547;28;20556;-83
2023/12/28 10:16:20;;;;;;;5.17;3.60;;;;;;;;;;5099466;28;20179;-83
2023/12/28 10:19:24;;;;;;;4.47;3.63;;;;;;;;;;5088025;28;20179;-82
2023/12/28 10:22:29;;;;;;;7.30;4.40;;;;;;;;;;5099837;28;20175;-82
2023/12/28 10:25:33;;;;;;;6.43;3.40;;;;;;;;;;5099314;28;20179;-83
2023/12/28 10:28:40;;;;;;;4.37;2.83;;;;;;;;;;5087269;28;20218;-83
2023/12/28 10:31:49;;;;;;;4.80;2.90;;;;;;;;;;5099191;28;20180;-84
2023/12/28 10:34:53;;;;;;;4.23;2.73;;;;;;;;;;5087187;28;20183;-83
2023/12/28 10:38:00;;;;;;;3.20;2.50;;;;;;;;;;5087264;28;20230;-83
2023/12/28 10:41:09;;;;;;;4.70;2.27;;;;;;;;;;5099218;28;20175;-83
2023/12/28 10:44:19;;;;;;;3.80;2.47;;;;;;;;;;5086712;28;20198;-83
2023/12/28 10:47:27;;;;;;;5.20;2.33;;;;;;;;;;5098933;28;20691;-83
2023/12/28 10:51:05;;;;;;;2.90;2.20;;;;;;;;;;5099864;28;20210;-83
2023/12/28 10:54:13;;;;;;;2.83;2.23;;;;;;;;;;5087135;28;20175;-82
2023/12/28 10:57:27;;;;;;;4.00;2.33;;;;;;;;;;5098663;28;20211;-83
2023/12/28 11:00:38;;;;;;;2.73;1.83;;;;;;;;;;5099041;28;20171;-82
2023/12/28 11:03:47;;;;;;;3.27;1.60;;;;;;;;;;5098748;28;20525;-83
2023/12/28 11:06:53;;;;;;;4.37;2.00;;;;;;;;;;5085830;28;20180;-83
2023/12/28 11:09:58;;;;;;;5.87;2.70;;;;;;;;;;5097460;28;20210;-83
2023/12/28 11:13:03;;;;;;;3.00;2.20;;;;;;;;;;5074114;28;20179;-84
2023/12/28 11:16:08;;;;;;;2.93;1.90;;;;;;;;;;5086111;28;20179;-82
2023/12/28 11:19:13;;;;;;;2.03;1.33;;;;;;;;;;5098606;28;20505;-82
2023/12/28 11:22:18;;;;;;;2.70;1.57;;;;;;;;;;5097026;28;20179;-82
2023/12/28 11:25:22;;;;;;;2.00;1.43;;;;;;;;;;5085953;28;20175;-83
2023/12/28 11:28:26;;;;;;;4.40;2.40;;;;;;;;;;5097583;28;20222;-84
2023/12/28 11:31:35;;;;;;;6.37;3.90;;;;;;;;;;5097725;28;20178;-83
2023/12/28 11:34:39;;;;;;;5.10;3.50;;;;;;;;;;5085015;28;20532;-83
2023/12/28 11:37:48;;;;;;;19.87;11.80;;;;;;;;;;5096933;28;20222;-82
2023/12/28 11:40:54;;;;;;;8.80;5.77;;;;;;;;;;5085858;28;20186;-83
2023/12/28 11:44:05;;;;;;;5.30;3.47;;;;;;;;;;5097354;28;20183;-83
2023/12/28 11:47:20;;;;;;;6.07;3.40;;;;;;;;;;5097375;28;20695;-83
2023/12/28 11:50:24;;;;;;;6.00;3.50;;;;;;;;;;5085370;28;20211;-84
2023/12/28 11:53:28;;;;;;;5.83;3.70;;;;;;;;;;5098167;28;20178;-82
2023/12/28 11:56:33;;;;;;;5.03;3.23;;;;;;;;;;5097949;28;20179;-83
2023/12/28 11:59:38;;;;;;;4.63;3.40;;;;;;;;;;5084445;28;20175;-83
2023/12/28 12:02:47;;;;;;;5.57;3.97;;;;;;;;;;5097140;28;20179;-82
2023/12/28 12:05:52;;;;;;;4.93;3.33;;;;;;;;;;5085078;28;20635;-82
2023/12/28 12:08:57;;;;;;;4.67;3.70;;;;;;;;;;5084318;28;20690;-83
2023/12/28 12:12:02;;;;;;;4.77;3.43;;;;;;;;;;5096483;28;20183;-84
2023/12/28 12:15:07;;;;;;;4.60;3.43;;;;;;;;;;5073332;28;20178;-82
2023/12/28 12:18:11;;;;;;;7.00;3.73;;;;;;;;;;5095631;28;20552;-81
2023/12/28 12:21:17;;;;;;;6.50;4.17;;;;;;;;;;5096883;28;20616;-84
2023/12/28 12:24:22;;;;;;;9.03;5.40;;;;;;;;;;5083898;28;20183;-82
2023/12/28 12:27:27;;;;;;;11.80;7.37;;;;;;;;;;5096821;28;20709;-83
2023/12/28 12:30:31;;;;;;;10.03;6.30;;;;;;;;;;5095833;28;20207;-82
2023/12/28 12:33:35;;;;;;;8.17;5.23;;;;;;;;;;5084285;28;20183;-82
2023/12/28 12:36:39;;;;;;;5.67;4.17;;;;;;;;;;5084052;28;20198;-82
2023/12/28 12:39:43;;;;;;;5.63;4.27;;;;;;;;;;5084087;28;20170;-82
2023/12/28 12:42:53;;;;;;;4.93;3.70;;;;;;;;;;5083377;28;20170;-83
2023/12/28 12:45:57;;;;;;;5.37;3.33;;;;;;;;;;5095571;28;20183;-83
2023/12/28 12:49:02;;;;;;;6.83;3.80;;;;;;;;;;5095275;28;20175;-83
2023/12/28 12:52:07;;;;;;;10.57;3.87;;;;;;;;;;5083579;28;20178;-83
2023/12/28 12:55:12;;;;;;;10.27;3.80;;;;;;;;;;5095566;28;20179;-83
2023/12/28 12:58:17;;;;;;;6.50;3.50;;;;;;;;;;5096029;28;20219;-82
2023/12/28 13:01:22;;;;;;;4.17;3.13;;;;;;;;;;5072455;28;20174;-82
2023/12/28 13:04:26;;;;;;;5.67;3.57;;;;;;;;;;5083462;28;20179;-81
2023/12/28 13:07:32;;;;;;;6.87;3.60;;;;;;;;;;5095713;28;20214;-80
2023/12/28 13:10:36;;;;;;;4.80;3.13;;;;;;;;;;5096005;28;20206;-83
2023/12/28 13:13:40;;;;;;;4.13;3.10;;;;;;;;;;5083348;28;20174;-82
2023/12/28 13:16:44;;;;;;;5.23;3.67;;;;;;;;;;5094615;28;20528;-83
2023/12/28 13:19:49;;;;;;;4.90;3.83;;;;;;;;;;5083883;28;20183;-83
2023/12/28 13:22:53;;;;;;;5.13;3.40;;;;;;;;;;5095665;28;20183;-80
2023/12/28 13:25:57;;;;;;;7.17;3.40;;;;;;;;;;5094891;28;20183;-80
2023/12/28 13:29:02;;;;;;;5.80;3.73;;;;;;;;;;5082906;28;20182;-80
2023/12/28 13:32:07;;;;;;;5.77;3.63;;;;;;;;;;5096375;28;20175;-81
2023/12/28 13:35:12;;;;;;;6.87;4.53;;;;;;;;;;5087906;28;20516;-80
2023/12/28 13:38:16;;;;;;;6.37;4.70;;;;;;;;;;5099830;28;20225;-81
2023/12/28 13:41:20;;;;;;;6.87;4.10;;;;;;;;;;5075534;28;20178;-81
2023/12/28 13:44:24;;;;;;;7.73;4.63;;;;;;;;;;5098682;28;20202;-82
2023/12/28 13:47:28;;;;;;;5.93;4.10;;;;;;;;;;5099133;28;20217;-83
2023/12/28 13:50:33;;;;;;;7.97;5.00;;;;;;;;;;5099014;28;20203;-83
2023/12/28 13:53:40;;;;;;;5.53;3.87;;;;;;;;;;5098387;28;20183;-82
2023/12/28 13:56:44;;;;;;;6.33;4.37;;;;;;;;;;5099101;28;20632;-82
2023/12/28 13:59:48;;;;;;;7.63;3.73;;;;;;;;;;5085549;28;20517;-82
2023/12/28 14:02:53;;;;;;;8.63;4.03;;;;;;;;;;5086593;28;20183;-82
2023/12/28 14:05:57;;;;;;;14.37;4.27;;;;;;;;;;5086203;28;20182;-82
2023/12/28 14:09:01;;;;;;;5.60;4.03;;;;;;;;;;5086357;28;20179;-82
2023/12/28 14:12:06;;;;;;;8.43;4.27;;;;;;;;;;5086371;28;20167;-82
2023/12/28 14:15:10;;;;;;;5.67;3.93;;;;;;;;;;5097929;28;20179;-82
2023/12/28 14:18:14;;;;;;;6.70;4.37;;;;;;;;;;5098731;28;20207;-82
2023/12/28 14:21:19;;;;;;;8.57;3.83;;;;;;;;;;5098182;28;20171;-83
2023/12/28 14:24:25;;;;;;;5.80;3.93;;;;;;;;;;5097644;28;20183;-82
2023/12/28 14:27:39;;;;;;;6.97;5.00;;;;;;;;;;5076994;28;20219;-83
2023/12/28 14:31:13;;;;;;;6.97;5.00;;;;;;;;;;5102652;28;20207;-83
2023/12/28 14:34:43;;;;;;;;;;;;;;;;;;;;;
2023/12/28 14:37:53;;;;;;;6.50;4.10;;;;;;;;;;5089322;28;20222;-82
2023/12/28 14:41:00;;;;;;;6.30;4.57;;;;;;;;;;5076345;28;20505;-83
2023/12/28 14:44:08;;;;;;;6.70;4.27;;;;;;;;;;5088300;28;20182;-82
2023/12/28 14:47:22;;;;;;;6.80;4.50;;;;;;;;;;5078411;28;20211;-83
2023/12/28 14:50:36;;;;;;;5.87;4.37;;;;;;;;;;5089957;28;20211;-83
2023/12/28 14:53:54;;;;;;;10.67;4.23;;;;;;;;;;5091582;28;20179;-86
2023/12/28 14:57:03;;;;;;;7.63;4.63;;;;;;;;;;5103258;28;20207;-84
2023/12/28 15:00:07;;;;;;;7.30;4.43;;;;;;;;;;5074006;28;20183;-82
2023/12/28 15:03:11;;;;;;;6.43;4.47;;;;;;;;;;5102307;28;20178;-85
2023/12/28 15:06:16;;;;;;;6.30;4.27;;;;;;;;;;5090548;28;20178;-85
2023/12/28 15:09:20;;;;;;;6.30;4.33;;;;;;;;;;5099696;28;20174;-85
2023/12/28 15:12:27;;;;;;;7.67;5.10;;;;;;;;;;5089697;28;20520;-85
2023/12/28 15:15:32;;;;;;;7.93;4.87;;;;;;;;;;5102517;28;20175;-85
2023/12/28 15:18:37;;;;;;;9.27;5.03;;;;;;;;;;5104151;28;20215;-86
2023/12/28 15:21:41;;;;;;;7.17;4.60;;;;;;;;;;5090404;28;20175;-85
2023/12/28 15:24:46;;;;;;;16.97;7.10;;;;;;;;;;5086691;28;20175;-82
2023/12/28 15:27:50;;;;;;;14.93;6.20;;;;;;;;;;5085985;28;20214;-82
2023/12/28 15:30:54;;;;;;;10.87;5.17;;;;;;;;;;5098094;28;20206;-82
2023/12/28 15:33:58;;;;;;;8.13;4.90;;;;;;;;;;5098512;28;20179;-83
2023/12/28 15:37:03;;;;;;;7.70;3.60;;;;;;;;;;5073429;28;20218;-83
2023/12/28 15:40:08;;;;;;;8.43;3.63;;;;;;;;;;5099376;28;20175;-82
2023/12/28 15:43:12;;;;;;;3.33;2.47;;;;;;;;;;5096896;28;20186;-82
2023/12/28 15:46:16;;;;;;;4.70;2.53;;;;;;;;;;5097456;28;20178;-84
2023/12/28 15:49:21;;;;;;;3.60;2.50;;;;;;;;;;5097333;28;20175;-83
2023/12/28 15:52:25;;;;;;;5.27;2.20;;;;;;;;;;5073234;28;20171;-83
2023/12/28 15:55:29;;;;;;;3.23;2.27;;;;;;;;;;5095199;28;20178;-83
2023/12/28 15:58:33;;;;;;;3.00;2.13;;;;;;;;;;5095917;28;20218;-82
2023/12/28 16:01:37;;;;;;;3.37;1.80;;;;;;;;;;5096160;28;20183;-82
2023/12/28 16:04:41;;;;;;;1.83;1.53;;;;;;;;;;5084106;28;20182;-82
2023/12/28 16:07:45;;;;;;;2.33;1.50;;;;;;;;;;5096809;28;20210;-83
2023/12/28 16:10:50;;;;;;;2.60;1.30;;;;;;;;;;5095406;28;20203;-82
2023/12/28 16:13:54;;;;;;;3.77;1.33;;;;;;;;;;5083221;28;20175;-83
2023/12/28 16:16:59;;;;;;;2.90;1.30;;;;;;;;;;5096386;28;20218;-82
2023/12/28 16:20:04;;;;;;;5.97;1.30;;;;;;;;;;5095771;28;20179;-83
2023/12/28 16:23:08;;;;;;;3.33;1.40;;;;;;;;;;5084312;28;20182;-83
2023/12/28 16:26:13;;;;;;;2.53;1.63;;;;;;;;;;5083855;28;20182;-83
2023/12/28 16:29:17;;;;;;;1.83;1.33;;;;;;;;;;5084067;28;20179;-85
2023/12/28 16:32:23;;;;;;;2.43;1.47;;;;;;;;;;5085271;28;20207;-83
2023/12/28 16:35:27;;;;;;;2.40;1.57;;;;;;;;;;5098941;28;20182;-84
2023/12/28 16:38:32;;;;;;;4.40;3.23;;;;;;;;;;5085631;28;20226;-83
2023/12/28 16:41:39;;;;;;;13.40;9.63;;;;;;;;;;5098342;28;20175;-81
2023/12/28 16:44:43;;;;;;;13.60;9.73;;;;;;;;;;5096210;28;20195;-82
2023/12/28 16:47:47;;;;;;;44.03;28.60;;;;;;;;;;5085183;28;20242;-84
2023/12/28 16:51:25;;;;;;;9.17;6.63;;;;;;;;;;5093144;28;20595;-84
2023/12/28 16:55:01;;;;;;;2.40;1.60;;;;;;;;;;5102571;28;20175;-82
2023/12/28 16:58:05;;;;;;;4.10;2.07;;;;;;;;;;5105454;28;20214;-81
2023/12/28 17:01:10;;;;;;;3.27;2.10;;;;;;;;;;5091665;28;20627;-84
2023/12/28 17:04:14;;;;;;;3.50;2.00;;;;;;;;;;5092338;28;20179;-85
2023/12/28 17:07:19;;;;;;;4.17;1.80;;;;;;;;;;5104190;28;20237;-84
2023/12/28 17:10:23;;;;;;;2.67;1.97;;;;;;;;;;5102199;28;20179;-85
2023/12/28 17:13:28;;;;;;;3.67;1.67;;;;;;;;;;5101732;28;20183;-84
2023/12/28 17:16:33;;;;;;;2.50;1.80;;;;;;;;;;5101778;28;20175;-82
2023/12/28 17:19:37;;;;;;;4.03;2.30;;;;;;;;;;5101851;28;20509;-82
2023/12/28 17:22:44;;;;;;;7.03;4.63;;;;;;;;;;5105740;28;20179;-81
2023/12/28 17:26:20;;;;;;;7.23;3.83;;;;;;;;;;5084359;28;20187;-83
2023/12/28 17:29:30;;;;;;;4.47;2.50;;;;;;;;;;5095794;28;20179;-84
2023/12/28 17:32:37;;;;;;;3.37;2.07;;;;;;;;;;5095269;28;20202;-83
2023/12/28 17:35:42;;;;;;;3.27;2.10;;;;;;;;;;5102675;28;20631;-84
2023/12/28 17:38:48;;;;;;;4.40;2.50;;;;;;;;;;5099474;28;20206;-83
2023/12/28 17:41:54;;;;;;;2.93;2.27;;;;;;;;;;5100057;28;20175;-83
2023/12/28 17:45:00;;;;;;;5.80;1.80;;;;;;;;;;5098915;28;20179;-82
2023/12/28 17:48:10;;;;;;;15.60;9.40;;;;;;;;;;5099215;28;20214;-83
2023/12/28 17:51:15;;;;;;;3.50;3.00;;;;;;;;;;5089420;28;20198;-85
2023/12/28 17:54:19;;;;;;;3.47;2.83;;;;;;;;;;5098350;28;20187;-82
2023/12/28 17:57:24;;;;;;;2.63;2.20;;;;;;;;;;5099354;28;20222;-81
2023/12/28 18:00:28;;;;;;;4.10;3.43;;;;;;;;;;5098922;28;20175;-82
2023/12/28 18:03:32;;;;;;;5.10;4.10;;;;;;;;;;5086261;28;20179;-83
2023/12/28 18:06:39;;;;;;;3.50;2.83;;;;;;;;;;5075906;28;20182;-84
2023/12/28 18:09:43;;;;;;;3.10;2.40;;;;;;;;;;5099285;28;20187;-82
2023/12/28 18:12:47;;;;;;;3.00;2.40;;;;;;;;;;5098648;28;20203;-83
2023/12/28 18:15:52;;;;;;;2.70;2.20;;;;;;;;;;5097116;28;20183;-82
2023/12/28 18:18:59;;;;;;;3.20;2.40;;;;;;;;;;5099577;28;20540;-82
2023/12/28 18:22:06;;;;;;;3.93;2.47;;;;;;;;;;5102116;28;20179;-85
2023/12/28 18:25:10;;;;;;;2.83;2.57;;;;;;;;;;5090425;28;20183;-85
2023/12/28 18:28:15;;;;;;;25.43;12.60;;;;;;;;;;5102376;28;20210;-83
2023/12/28 18:31:19;;;;;;;23.77;9.67;;;;;;;;;;5090842;28;20221;-86